Time;durP1;ratioP1;P1;durP2;ratioP2;P2;SDS_P1;SDS_P2;PMS_P1;PMS_P2;Temp;Humidity;BMP_temperature;BMP_pressure;BME280_temperature;BME280_humidity;BME280_pressure;Samples;Min_cycle;Max_cycle;Signal;HPM_P1;HPM_P2
2020/12/23 00:02:53;;;;;;;12.75;3.40;;;;;;;;;;6317432;22;20027;-94
2020/12/23 00:06:15;;;;;;;8.27;4.28;;;;;;;;;;6332243;22;20051;-92
2020/12/23 00:17:57;;;;;;;12.60;4.95;;;12.20;99.90;;;;;;6335155;22;20047;-93
2020/12/23 00:43:24;;;;;;;12.65;5.15;;;;;;;;;;6345357;22;20063;-93
2020/12/23 00:47:20;;;;;;;15.52;5.05;;;12.30;99.90;;;;;;6332824;22;20075;-92
2020/12/23 00:50:42;;;;;;;5.68;3.15;;;;;;;;;;6329194;22;20059;-92
2020/12/23 00:58:11;;;;;;;10.63;3.38;;;;;;;;;;6329346;22;20067;-92
2020/12/23 01:01:06;;;;;;;5.18;2.67;;;;;;;;;;6333863;22;20071;-92
2020/12/23 01:04:05;;;;;;;4.00;2.85;;;;;;;;;;6286624;22;20098;-92
2020/12/23 01:10:09;;;;;;;8.07;3.10;;;;;;;;;;6302548;22;20080;-92
2020/12/23 01:13:25;;;;;;;8.98;2.55;;;12.30;99.90;;;;;;6183852;23;20008;-92
2020/12/23 01:16:42;;;;;;;2.65;1.60;;;12.30;99.90;;;;;;6206796;23;20538;-92
2020/12/23 01:20:17;;;;;;;4.97;1.30;;;12.20;99.90;;;;;;6172866;23;20060;-92
2020/12/23 01:23:29;;;;;;;5.00;1.52;;;;;;;;;;6213642;23;20033;-92
2020/12/23 01:26:05;;;;;;;4.60;1.63;;;;;;;;;;6153547;23;20021;-92
2020/12/23 01:28:51;;;;;;;2.25;1.20;;;;;;;;;;6207104;23;20082;-92
2020/12/23 01:35:03;;;;;;;2.75;1.40;;;;;;;;;;6214745;23;20014;-92
2020/12/23 01:37:39;;;;;;;;;;;12.30;99.90;;;;;;6191926;23;20016;-93
2020/12/23 01:40:30;;;;;;;2.08;1.30;;;;;;;;;;6215451;23;19929;-93
2020/12/23 01:43:19;;;;;;;1.40;1.30;;;;;;;;;;6254781;23;20020;-92
2020/12/23 01:46:45;;;;;;;2.42;1.30;;;12.60;99.90;;;;;;6200699;23;20008;-91
2020/12/23 01:49:40;;;;;;;4.03;1.95;;;;;;;;;;6171092;23;20341;-91
2020/12/23 01:53:30;;;;;;;1.80;1.30;;;;;;;;;;6176006;23;20022;-93
2020/12/23 01:56:19;;;;;;;1.25;1.17;;;;;;;;;;6110595;23;20026;-91
2020/12/23 01:59:11;;;;;;;1.60;1.50;;;;;;;;;;6128907;23;20032;-92
2020/12/23 02:02:08;;;;;;;1.90;1.30;;;;;;;;;;6171861;23;20022;-92
2020/12/23 02:05:06;;;;;;;4.25;2.55;;;;;;;;;;6123554;23;20515;-92
2020/12/23 02:08:09;;;;;;;1.77;1.33;;;;;;;;;;6125240;23;20327;-92
2020/12/23 02:10:57;;;;;;;2.20;1.45;;;;;;;;;;6147086;23;20383;-92
2020/12/23 02:13:47;;;;;;;2.08;1.20;;;;;;;;;;6172797;23;20028;-91
2020/12/23 02:16:27;;;;;;;1.95;1.10;;;;;;;;;;6147810;23;20013;-92
2020/12/23 02:20:31;;;;;;;3.80;1.90;;;12.40;99.90;;;;;;6173595;23;20061;-93
2020/12/23 02:23:05;;;;;;;2.25;1.25;;;;;;;;;;6130549;23;20028;-92
2020/12/23 02:25:49;;;;;;;1.13;1.08;;;;;;;;;;6106822;23;20017;-92
2020/12/23 02:28:45;;;;;;;4.75;0.98;;;;;;;;;;6174375;23;20021;-92
2020/12/23 02:31:31;;;;;;;1.95;1.00;;;;;;;;;;6106038;23;20017;-94
2020/12/23 02:34:31;;;;;;;1.27;1.02;;;12.50;99.90;;;;;;6146411;23;20030;-94
2020/12/23 02:37:48;;;;;;;1.40;0.95;;;12.40;99.90;;;;;;6184910;23;20016;-92
2020/12/23 02:40:53;;;;;;;0.80;0.80;;;;;;;;;;6186009;23;20008;-92
2020/12/23 02:43:40;;;;;;;0.80;0.80;;;;;;;;;;6236141;23;20009;-92
2020/12/23 02:46:33;;;;;;;2.35;1.10;;;;;;;;;;6217493;22;20035;-92
2020/12/23 02:49:23;;;;;;;0.85;0.85;;;;;;;;;;6213050;22;20072;-93
2020/12/23 02:52:44;;;;;;;1.52;0.88;;;;;;;;;;6161922;23;20022;-92
2020/12/23 02:55:26;;;;;;;1.52;1.17;;;;;;;;;;6154866;23;20065;-94
2020/12/23 02:58:15;;;;;;;1.40;1.30;;;;;;;;;;6154911;23;20084;-94
2020/12/23 03:00:51;;;;;;;1.15;1.05;;;;;;;;;;6107993;23;20061;-93
2020/12/23 03:03:37;;;;;;;1.83;1.60;;;;;;;;;;6173059;23;20493;-93
2020/12/23 03:06:07;;;;;;;2.78;1.20;;;;;;;;;;6106811;23;20081;-93
2020/12/23 03:09:01;;;;;;;1.15;0.80;;;;;;;;;;6177916;23;20028;-92
2020/12/23 03:11:50;;;;;;;2.13;1.10;;;;;;;;;;6177597;23;20066;-92
2020/12/23 03:14:45;;;;;;;4.40;1.33;;;12.40;99.90;;;;;;6154421;23;20105;-92
2020/12/23 03:17:39;;;;;;;1.75;1.20;;;;;;;;;;6111936;23;20069;-94
2020/12/23 03:20:39;;;;;;;2.22;1.05;;;;;;;;;;6188902;23;20077;-92
2020/12/23 03:23:45;;;;;;;4.07;1.88;;;;;;;;;;6228977;22;20076;-93
2020/12/23 03:26:34;;;;;;;1.15;1.08;;;;;;;;;;6215537;22;20076;-93
2020/12/23 03:29:19;;;;;;;2.17;0.95;;;;;;;;;;6191317;22;20056;-92
2020/12/23 03:32:11;;;;;;;2.50;1.38;;;12.50;99.90;;;;;;6204003;22;20056;-92
2020/12/23 03:35:03;;;;;;;3.55;1.20;;;;;;;;;;6261496;22;20063;-93
2020/12/23 03:37:52;;;;;;;2.25;1.30;;;;;;;;;;6276550;22;20071;-92
2020/12/23 03:40:26;;;;;;;3.90;1.30;;;;;;;;;;6264885;22;20064;-93
2020/12/23 03:43:37;;;;;;;2.10;1.00;;;;;;;;;;6288407;22;20080;-92
2020/12/23 03:46:25;;;;;;;2.60;1.30;;;;;;;;;;6310719;22;20074;-91
2020/12/23 03:49:22;;;;;;;1.38;1.10;;;;;;;;;;6282712;22;20067;-92
2020/12/23 03:51:58;;;;;;;2.13;1.35;;;;;;;;;;6277026;22;20051;-92
2020/12/23 03:54:50;;;;;;;2.25;1.40;;;;;;;;;;6287444;22;20078;-93
2020/12/23 03:58:09;;;;;;;1.75;1.35;;;;;;;;;;6291825;22;20067;-95
2020/12/23 04:01:09;;;;;;;3.85;1.67;;;;;;;;;;6281382;22;20062;-95
2020/12/23 04:04:06;;;;;;;2.75;1.67;;;;;;;;;;6305797;22;20054;-93
2020/12/23 04:06:43;;;;;;;2.35;1.20;;;;;;;;;;6329540;22;20055;-92
2020/12/23 04:09:17;;;;;;;5.97;1.75;;;;;;;;;;6259772;22;20067;-92
2020/12/23 04:11:56;;;;;;;3.53;1.38;;;;;;;;;;6259305;22;20066;-92
2020/12/23 04:14:35;;;;;;;6.45;2.50;;;;;;;;;;6261175;22;20082;-91
2020/12/23 04:17:27;;;;;;;1.95;0.95;;;;;;;;;;6309246;22;20067;-95
2020/12/23 04:20:13;;;;;;;2.55;1.27;;;;;;;;;;6289463;22;20079;-93
2020/12/23 04:22:51;;;;;;;5.05;1.10;;;;;;;;;;6284193;22;20067;-91
2020/12/23 04:26:14;;;;;;;2.10;1.67;;;12.80;99.90;;;;;;6255766;22;20055;-92
2020/12/23 04:28:50;;;;;;;2.63;1.10;;;;;;;;;;6281380;22;20009;-92
2020/12/23 04:34:21;;;;;;;2.85;2.28;;;;;;;;;;6272543;22;20059;-92
2020/12/23 04:37:08;;;;;;;1.55;0.82;;;;;;;;;;6271345;22;20075;-93
2020/12/23 04:39:53;;;;;;;3.55;1.35;;;;;;;;;;6249657;22;20056;-93
2020/12/23 04:42:34;;;;;;;3.50;2.45;;;;;;;;;;6225389;22;20064;-94
2020/12/23 04:45:45;;;;;;;2.53;1.38;;;;;;;;;;6270472;22;20064;-92
2020/12/23 04:48:27;;;;;;;4.90;1.38;;;;;;;;;;6268146;22;20083;-94
2020/12/23 04:51:14;;;;;;;1.65;1.40;;;;;;;;;;6229393;22;20119;-94
2020/12/23 04:54:24;;;;;;;;;;;;;;;;;;6273450;22;20055;-95
2020/12/23 04:57:40;;;;;;;2.17;1.10;;;;;;;;;;6271602;22;19949;-93
2020/12/23 05:00:18;;;;;;;2.65;1.63;;;12.70;99.90;;;;;;6200836;22;20068;-94
2020/12/23 05:02:59;;;;;;;7.30;2.30;;;;;;;;;;6247385;22;20063;-93
2020/12/23 05:05:49;;;;;;;1.65;1.20;;;;;;;;;;6248960;22;20067;-93
2020/12/23 05:08:22;;;;;;;8.50;2.75;;;;;;;;;;6224089;22;20055;-93
2020/12/23 05:11:39;;;;;;;8.38;2.30;;;;;;;;;;6238648;22;20059;-93
2020/12/23 05:14:59;;;;;;;2.25;2.03;;;12.70;99.90;;;;;;6248802;22;20063;-93
2020/12/23 05:17:53;;;;;;;11.38;2.17;;;;;;;;;;6261649;22;20064;-93
2020/12/23 05:25:03;;;;;;;10.10;2.17;;;;;;;;;;6222904;22;20059;-94
2020/12/23 05:27:52;;;;;;;2.90;1.58;;;;;;;;;;6246622;22;20018;-94
2020/12/23 05:31:15;;;;;;;10.73;2.33;;;;;;;;;;6273340;22;20064;-92
2020/12/23 05:34:27;;;;;;;4.47;1.93;;;;;;;;;;6235405;22;20076;-92
2020/12/23 05:37:18;;;;;;;13.35;2.63;;;;;;;;;;6239253;22;20064;-93
2020/12/23 05:40:03;;;;;;;9.68;2.33;;;;;;;;;;6186370;22;20056;-93
2020/12/23 05:45:46;;;;;;;6.15;2.00;;;;;;;;;;6216546;22;20064;-93
2020/12/23 05:52:14;;;;;;;7.93;2.67;;;;;;;;;;6216017;22;20064;-91
2020/12/23 05:55:03;;;;;;;7.28;2.78;;;;;;;;;;6214635;22;20048;-92
2020/12/23 05:57:53;;;;;;;8.30;2.45;;;;;;;;;;6200832;22;20055;-93
2020/12/23 06:00:51;;;;;;;5.22;2.33;;;;;;;;;;6242187;22;20068;-92
2020/12/23 06:03:48;;;;;;;7.97;1.63;;;;;;;;;;6224889;22;20092;-92
2020/12/23 06:06:29;;;;;;;3.30;1.60;;;12.70;99.90;;;;;;6241727;22;20081;-92
2020/12/23 06:09:06;;;;;;;2.85;1.33;;;12.70;99.90;;;;;;6239956;22;20060;-92
2020/12/23 06:11:55;;;;;;;2.28;1.80;;;;;;;;;;6217492;22;20071;-91
2020/12/23 06:14:39;;;;;;;12.32;1.35;;;;;;;;;;6212047;22;20060;-92
2020/12/23 06:18:47;;;;;;;4.57;1.73;;;;;;;;;;6240531;22;20060;-91
2020/12/23 06:22:18;;;;;;;1.98;1.42;;;;;;;;;;6246762;22;20068;-93
2020/12/23 06:25:00;;;;;;;1.33;1.23;;;;;;;;;;6198319;22;20068;-92
2020/12/23 06:27:34;;;;;;;1.30;0.93;;;;;;;;;;6216347;22;20083;-93
2020/12/23 06:31:29;;;;;;;3.85;1.60;;;12.70;99.90;;;;;;6289369;22;20067;-95
2020/12/23 06:34:46;;;;;;;3.53;1.27;;;12.90;99.90;;;;;;6246440;22;21227;-93
2020/12/23 06:39:44;;;;;;;10.50;1.23;;;12.50;99.90;;;;;;6253363;23;20072;-94
2020/12/23 06:43:06;;;;;;;2.42;1.20;;;;;;;;;;6196998;22;20081;-92
2020/12/23 06:46:11;;;;;;;8.20;1.50;;;;;;;;;;6194280;23;20111;-93
2020/12/23 06:49:17;;;;;;;4.70;2.75;;;;;;;;;;6209906;23;20023;-92
2020/12/23 06:52:41;;;;;;;3.45;1.33;;;12.20;99.90;;;;;;6214164;23;20087;-91
2020/12/23 06:55:45;;;;;;;3.15;1.13;;;12.30;99.90;;;;;;6190512;23;20060;-91
2020/12/23 06:58:49;;;;;;;3.70;1.25;;;;;;;;;;6216604;23;20024;-92
2020/12/23 07:01:38;;;;;;;5.90;1.73;;;;;;;;;;6140707;23;20015;-93
2020/12/23 07:04:25;;;;;;;13.00;1.73;;;;;;;;;;6202519;22;20373;-93
2020/12/23 07:07:30;;;;;;;7.65;3.25;;;;;;;;;;6300446;22;20015;-92
2020/12/23 07:10:25;;;;;;;2.83;1.30;;;;;;;;;;6323109;22;20034;-90
2020/12/23 07:13:09;;;;;;;12.80;2.40;;;;;;;;;;6217668;23;19996;-92
2020/12/23 07:15:55;;;;;;;5.05;1.35;;;;;;;;;;6244251;23;20004;-93
2020/12/23 07:18:57;;;;;;;4.53;1.60;;;12.10;99.90;;;;;;6218309;23;20019;-93
2020/12/23 07:22:32;;;;;;;4.95;1.48;;;12.00;99.90;;;;;;6240954;22;20016;-93
2020/12/23 07:25:13;;;;;;;7.32;1.88;;;;;;;;;;6219373;23;20004;-92
2020/12/23 07:28:19;;;;;;;8.13;1.98;;;;;;;;;;6225584;23;20026;-92
2020/12/23 07:31:43;;;;;;;6.68;1.90;;;11.90;99.90;;;;;;6197623;23;20019;-92
2020/12/23 07:34:51;;;;;;;;;;;11.70;99.90;;;;;;6171770;23;20005;-92
2020/12/23 07:38:19;;;;;;;8.38;1.88;;;;;;;;;;6235703;23;19896;-93
2020/12/23 07:41:24;;;;;;;3.85;1.27;;;;;;;;;;6182098;23;20031;-92
2020/12/23 07:44:21;;;;;;;4.28;1.40;;;;;;;;;;6164061;23;20026;-92
2020/12/23 07:47:05;;;;;;;9.25;2.20;;;;;;;;;;6195886;23;20004;-92
2020/12/23 07:49:44;;;;;;;4.82;1.30;;;;;;;;;;6238540;22;20023;-91
2020/12/23 07:52:51;;;;;;;8.07;1.95;;;12.20;99.90;;;;;;6191888;23;20543;-92
2020/12/23 07:56:28;;;;;;;3.33;1.10;;;12.00;99.90;;;;;;6232615;23;20024;-91
2020/12/23 08:06:10;;;;;;;2.45;1.20;;;;;;;;;;6333336;22;20075;-92
2020/12/23 08:10:10;;;;;;;3.15;1.45;;;;;;;;;;6323527;22;20007;-92
2020/12/23 08:17:40;;;;;;;3.35;1.80;;;;;;;;;;6308710;22;20013;-93
2020/12/23 08:24:03;;;;;;;25.50;2.58;;;;;;;;;;6309943;22;20082;-92
2020/12/23 08:45:54;;;;;;;6.28;2.83;;;;;;;;;;6317436;22;20011;-91
2020/12/23 09:07:07;;;;;;;11.77;3.22;;;12.30;99.90;;;;;;6296799;22;20023;-93
2020/12/23 09:10:54;;;;;;;12.68;5.13;;;12.30;99.90;;;;;;6216479;22;20031;-92
2020/12/23 09:17:47;;;;;;;10.90;3.92;;;;;;;;;;6282224;22;20010;-93
2020/12/23 09:22:10;;;;;;;15.13;3.08;;;;;;;;;;6251739;22;20087;-94
2020/12/23 09:25:50;;;;;;;4.93;2.85;;;12.30;99.90;;;;;;6218128;23;20060;-92
2020/12/23 09:31:56;;;;;;;5.93;1.95;;;;;;;;;;6194378;22;20412;-92
2020/12/23 09:38:36;;;;;;;6.90;2.80;;;;;;;;;;6244377;23;20075;-92
2020/12/23 09:42:09;;;;;;;8.90;3.95;;;12.50;99.90;;;;;;6268456;22;20028;-91
2020/12/23 09:45:24;;;;;;;6.70;2.75;;;12.50;99.90;;;;;;6203665;23;20017;-91
2020/12/23 09:47:58;;;;;;;10.25;3.72;;;;;;;;;;6197723;23;20015;-93
2020/12/23 09:51:05;;;;;;;4.78;3.05;;;;;;;;;;6272141;22;20019;-93
2020/12/23 09:55:22;;;;;;;11.77;3.40;;;;;;;;;;6302562;22;20015;-93
2020/12/23 09:59:13;;;;;;;7.68;3.83;;;;;;;;;;6248707;23;19996;-92
2020/12/23 10:06:27;;;;;;;5.03;2.47;;;;;;;;;;6237559;23;20068;-94
2020/12/23 10:17:54;;;;;;;8.60;2.80;;;;;;;;;;6332119;22;20011;-93
2020/12/23 10:21:20;;;;;;;9.43;3.08;;;;;;;;;;6277073;22;20090;-93
2020/12/23 10:28:25;;;;;;;8.90;2.22;;;13.00;99.90;;;;;;6303989;22;20015;-92
2020/12/23 10:34:56;;;;;;;10.27;2.67;;;;;;;;;;6316490;22;20019;-92
2020/12/23 10:39:02;;;;;;;5.45;1.48;;;;;;;;;;6305720;22;20071;-91
2020/12/23 10:42:31;;;;;;;4.90;1.67;;;13.20;99.90;;;;;;6260355;22;20022;-92
2020/12/23 10:46:42;;;;;;;2.67;0.90;;;13.20;99.90;;;;;;6283151;22;20038;31
2020/12/23 10:50:01;;;;;;;2.88;1.25;;;;;;;;;;6187089;22;20008;-91
2020/12/23 10:58:05;;;;;;;4.60;1.20;;;13.20;99.90;;;;;;6290733;22;20099;-92
2020/12/23 11:01:41;;;;;;;3.58;1.15;;;13.40;99.90;;;;;;6280276;22;20023;-90
2020/12/23 11:04:23;;;;;;;3.80;1.15;;;;;;;;;;6270178;22;20016;-89
2020/12/23 11:08:06;;;;;;;4.45;1.13;;;;;;;;;;6279073;22;20066;-91
2020/12/23 11:14:16;;;;;;;7.50;2.38;;;;;;;;;;6259127;22;20027;-87
2020/12/23 11:22:33;;;;;;;9.25;1.55;;;;;;;;;;6259434;22;20236;-90
2020/12/23 11:25:27;;;;;;;3.72;1.60;;;;;;;;;;6301269;22;20018;-92
2020/12/23 11:29:14;;;;;;;5.18;2.47;;;;;;;;;;6313503;22;20020;-91
2020/12/23 11:35:51;;;;;;;3.25;2.28;;;13.10;99.90;;;;;;6323401;22;20011;-90
2020/12/23 11:39:23;;;;;;;11.88;3.92;;;;;;;;;;6286369;22;20020;-91
2020/12/23 11:43:00;;;;;;;10.02;2.08;;;;;;;;;;6280048;22;20034;-90
2020/12/23 11:46:19;;;;;;;7.20;2.58;;;;;;;;;;6265092;22;20026;-88
2020/12/23 11:49:16;;;;;;;5.68;2.55;;;;;;;;;;6248869;22;20024;-91
2020/12/23 11:51:59;;;;;;;15.05;3.25;;;;;;;;;;6230481;23;20031;-90
2020/12/23 11:55:43;;;;;;;6.70;2.80;;;;;;;;;;6288873;22;20033;-90
2020/12/23 11:59:45;;;;;;;16.65;4.20;;;;;;;;;;6294777;22;20023;-90
2020/12/23 12:07:30;;;;;;;11.93;5.75;;;;;;;;;;6206367;23;20024;-91
2020/12/23 12:10:26;;;;;;;19.30;4.03;;;;;;;;;;6192589;22;20018;-90
2020/12/23 12:13:00;;;;;;;8.68;2.33;;;;;;;;;;6250373;22;20003;-90
2020/12/23 12:34:29;;;;;;;10.23;2.50;;;13.70;99.90;;;;;;6281028;22;20008;-90
2020/12/23 12:42:28;;;;;;;9.73;1.95;;;13.80;99.90;;;;;;6311152;22;20076;-93
2020/12/23 12:46:08;;;;;;;11.15;3.08;;;;;;;;;;6193327;22;20026;31
2020/12/23 12:48:55;;;;;;;11.80;3.28;;;;;;;;;;6135560;23;20005;-93
2020/12/23 12:55:20;;;;;;;12.98;2.53;;;;;;;;;;6297009;22;20012;-90
2020/12/23 12:58:47;;;;;;;7.18;2.17;;;;;;;;;;6291926;22;20023;-89
2020/12/23 13:01:34;;;;;;;15.25;2.88;;;;;;;;;;6248649;22;20022;-91
2020/12/23 13:12:53;;;;;;;10.60;2.70;;;13.30;99.90;;;;;;6272136;22;20018;-90
2020/12/23 13:20:58;;;;;;;11.30;2.28;;;;;;;;;;6299026;22;20071;-89
2020/12/23 13:24:18;;;;;;;14.32;3.53;;;13.70;99.90;;;;;;6302655;22;20075;-89
2020/12/23 13:27:50;;;;;;;8.50;3.20;;;13.90;99.90;;;;;;6277609;22;20020;-91
2020/12/23 13:34:44;;;;;;;9.40;2.40;;;13.80;99.90;;;;;;6207221;23;20020;-90
2020/12/23 13:38:37;;;;;;;17.20;5.13;;;13.70;99.90;;;;;;6200715;23;19999;-88
2020/12/23 13:41:32;;;;;;;14.57;3.50;;;;;;;;;;6189563;23;20023;-90
2020/12/23 13:49:12;;;;;;;6.32;2.25;;;13.50;99.90;;;;;;6241697;23;20031;-92
2020/12/23 13:56:02;;;;;;;9.73;2.95;;;;;;;;;;6175487;23;20010;-91
2020/12/23 13:59:39;;;;;;;13.23;3.03;;;;;;;;;;6252348;23;20010;-89
2020/12/23 14:06:46;;;;;;;11.73;2.05;;;;;;;;;;6301703;22;20010;-91
2020/12/23 14:10:43;;;;;;;12.00;3.35;;;13.70;99.90;;;;;;6276487;22;20007;-87
2020/12/23 14:14:02;;;;;;;14.23;3.45;;;;;;;;;;6203568;23;20008;-91
2020/12/23 14:18:30;;;;;;;10.32;2.78;;;13.50;99.90;;;;;;6137228;23;20017;-88
2020/12/23 14:21:54;;;;;;;9.07;2.40;;;;;;;;;;6071187;23;20014;-89
2020/12/23 14:25:32;;;;;;;19.58;2.42;;;;;;;;;;6102072;23;20074;-91
2020/12/23 14:29:21;;;;;;;9.75;2.22;;;13.10;99.90;;;;;;6253605;22;20031;-90
2020/12/23 14:35:25;;;;;;;3.63;1.40;;;;;;;;;;6303265;22;20007;-92
2020/12/23 15:17:59;;;;;;;4.80;2.45;;;;;;;;;;6326307;22;20023;-90
2020/12/23 15:22:23;;;;;;;12.07;3.30;;;;;;;;;;6330947;22;20027;-91
2020/12/23 15:28:55;;;;;;;14.35;3.85;;;;;;;;;;6300615;22;20003;-92
2020/12/23 15:31:51;;;;;;;5.00;2.15;;;;;;;;;;6266055;22;20003;-91
2020/12/23 15:35:15;;;;;;;11.80;3.10;;;;;;;;;;6250534;22;20052;-93
2020/12/23 15:38:26;;;;;;;12.43;2.78;;;;;;;;;;6213647;22;20068;-92
2020/12/23 15:48:15;;;;;;;14.25;3.00;;;;;;;;;;6323247;22;20027;-90
2020/12/23 15:51:01;;;;;;;10.82;3.75;;;;;;;;;;6305190;22;20019;-93
2020/12/23 15:54:29;;;;;;;15.32;3.05;;;;;;;;;;6328994;22;20016;-90
2020/12/23 15:58:23;;;;;;;14.43;3.15;;;11.40;99.90;;;;;;6312017;22;20054;-91
2020/12/23 16:04:48;;;;;;;6.53;1.63;;;;;;;;;;6302295;22;20019;-91
2020/12/23 16:08:49;;;;;;;0.98;0.95;;;11.10;99.90;;;;;;6280280;22;20027;-90
2020/12/23 16:12:39;;;;;;;10.13;2.08;;;;;;;;;;6250476;23;20029;-91
2020/12/23 16:19:33;;;;;;;10.48;2.38;;;;;;;;;;6246573;22;20075;-91
2020/12/23 16:22:32;;;;;;;5.70;2.05;;;;;;;;;;6227260;22;20014;-93
2020/12/23 16:30:03;;;;;;;4.07;1.48;;;10.80;99.90;;;;;;6239120;22;20008;-93
2020/12/23 16:33:22;;;;;;;18.75;2.42;;;;;;;;;;6251133;22;20000;-91
2020/12/23 16:36:39;;;;;;;7.63;2.15;;;10.60;99.90;;;;;;6241466;22;20075;-91
2020/12/23 16:39:51;;;;;;;10.60;3.03;;;;;;;;;;6230888;22;20112;-91
2020/12/23 16:42:51;;;;;;;11.07;2.70;;;10.30;99.90;;;;;;6215152;22;20072;-92
2020/12/23 16:45:52;;;;;;;;;;;10.60;99.90;;;;;;6270987;22;20067;-93
2020/12/23 16:49:07;;;;;;;4.70;2.38;;;;;;;;;;6269689;22;19955;-92
2020/12/23 16:51:53;;;;;;;9.32;2.38;;;;;;;;;;6271011;22;20072;-90
2020/12/23 16:54:31;;;;;;;3.15;1.77;;;;;;;;;;6268181;22;20065;-93
2020/12/23 16:57:18;;;;;;;5.50;1.63;;;;;;;;;;6289810;22;20031;-91
2020/12/23 17:00:09;;;;;;;5.70;2.67;;;;;;;;;;6272134;22;20016;-90
2020/12/23 17:02:47;;;;;;;14.70;3.40;;;;;;;;;;6240376;23;20004;-90
2020/12/23 17:05:33;;;;;;;6.47;2.17;;;;;;;;;;6242005;23;20012;-91
2020/12/23 17:08:22;;;;;;;11.98;2.08;;;;;;;;;;6225154;23;20026;-91
2020/12/23 17:11:34;;;;;;;7.50;2.67;;;;;;;;;;6223135;23;20075;-92
2020/12/23 17:14:21;;;;;;;6.22;2.22;;;;;;;;;;6261058;23;20026;-90
2020/12/23 17:17:31;;;;;;;11.25;2.17;;;;;;;;;;6277895;22;20004;-91
2020/12/23 17:20:56;;;;;;;11.00;3.10;;;;;;;;;;6282447;22;20020;-92
2020/12/23 17:24:05;;;;;;;6.30;2.75;;;;;;;;;;6263917;22;20063;-92
2020/12/23 17:27:02;;;;;;;6.55;2.53;;;;;;;;;;6254784;22;20000;-91
2020/12/23 17:29:50;;;;;;;10.85;2.75;;;;;;;;;;6242744;22;20014;-89
2020/12/23 17:32:42;;;;;;;14.60;2.70;;;;;;;;;;6231621;23;20016;-91
2020/12/23 17:42:45;;;;;;;7.50;2.72;;;10.40;99.90;;;;;;6329547;22;20074;-92
2020/12/23 17:46:03;;;;;;;4.50;2.42;;;;;;;;;;6324008;22;20090;-89
2020/12/23 17:49:49;;;;;;;10.57;2.70;;;10.20;99.90;;;;;;6308708;22;20059;-92
2020/12/23 17:54:05;;;;;;;7.68;3.08;;;10.20;99.90;;;;;;6280602;22;20030;-94
2020/12/23 18:09:42;;;;;;;15.70;3.05;;;;;;;;;;6268667;22;20020;-91
2020/12/23 18:13:44;;;;;;;9.85;2.60;;;9.90;99.90;;;;;;6246000;23;20024;-92
2020/12/23 18:18:00;;;;;;;9.77;2.83;;;;;;;;;;6259975;23;20034;-90
2020/12/23 18:27:04;;;;;;;11.75;3.58;;;10.20;99.90;;;;;;6241184;22;20079;-92
2020/12/23 18:29:55;;;;;;;12.02;2.60;;;;;;;;;;6196208;23;20016;-93
2020/12/23 18:33:39;;;;;;;43.85;6.70;;;;;;;;;;6223763;23;20004;-94
2020/12/23 18:37:26;;;;;;;;;;;;;;;;;;;;;
2020/12/23 18:41:00;;;;;;;9.82;2.60;;;;;;;;;;6211258;23;20034;-93
2020/12/23 18:47:26;;;;;;;10.23;3.25;;;;;;;;;;6278072;22;20024;-93
2020/12/23 18:50:11;;;;;;;;;;;;;;;;;;6227872;22;20023;-93
2020/12/23 18:53:05;;;;;;;13.20;3.65;;;;;;;;;;6303576;22;19933;-91
2020/12/23 18:57:19;;;;;;;11.70;4.28;;;10.20;99.90;;;;;;6306067;22;20015;-93
2020/12/23 19:04:13;;;;;;;7.45;2.88;;;;;;;;;;6332418;22;20074;-92
2020/12/23 19:18:03;;;;;;;6.25;2.70;;;;;;;;;;6270528;22;20115;-93
2020/12/23 19:21:18;;;;;;;14.23;3.38;;;10.20;99.90;;;;;;6245057;22;20075;-93
2020/12/23 19:28:56;;;;;;;11.75;2.80;;;10.20;99.90;;;;;;6246672;22;20063;-93
2020/12/23 19:32:11;;;;;;;8.40;2.72;;;;;;;;;;6202547;23;20019;-92
2020/12/23 19:38:32;;;;;;;7.90;2.67;;;;;;;;;;6314394;22;20019;-92
2020/12/23 19:42:10;;;;;;;13.30;6.13;;;;;;;;;;6323722;22;20020;-91
2020/12/23 19:45:17;;;;;;;7.00;2.65;;;;;;;;;;6252944;22;20058;-90
2020/12/23 19:47:55;;;;;;;7.90;2.45;;;;;;;;;;6284774;22;20078;-91
2020/12/23 19:57:23;;;;;;;10.68;3.15;;;9.30;99.90;;;;;;6303244;22;20059;-91
2020/12/23 20:00:39;;;;;;;6.45;2.63;;;;;;;;;;6259938;22;20051;-90
2020/12/23 20:03:50;;;;;;;8.93;3.90;;;;;;;;;;6284985;22;20060;-91
2020/12/23 20:07:09;;;;;;;10.52;5.00;;;9.20;99.90;;;;;;6279495;22;20023;-89
2020/12/23 20:10:08;;;;;;;;;;;9.10;99.90;;;;;;6299461;22;20019;-89
2020/12/23 20:13:04;;;;;;;18.63;3.73;;;;;;;;;;6297274;22;19951;-89
2020/12/23 20:15:56;;;;;;;13.38;4.22;;;;;;;;;;6269304;22;20264;-90
2020/12/23 20:18:53;;;;;;;;;;;9.10;99.90;;;;;;6300642;22;20012;-91
2020/12/23 20:22:27;;;;;;;10.32;3.55;;;;;;;;;;6281991;22;19943;-91
2020/12/23 20:30:08;;;;;;;18.73;5.20;;;;;;;;;;6271642;22;20001;-89
2020/12/23 20:33:44;;;;;;;11.05;5.25;;;;;;;;;;6271693;22;20056;-87
2020/12/23 20:36:51;;;;;;;12.43;4.13;;;9.20;99.90;;;;;;6259348;22;20075;-90
2020/12/23 20:39:44;;;;;;;12.25;3.10;;;;;;;;;;6286443;22;20007;-91
2020/12/23 20:42:53;;;;;;;17.52;2.95;;;;;;;;;;6306435;22;20058;-91
2020/12/23 20:45:51;;;;;;;8.90;2.80;;;;;;;;;;6257283;22;20021;-90
2020/12/23 20:55:49;;;;;;;9.43;3.80;;;;;;;;;;6324153;22;20035;-92
2020/12/23 20:59:36;;;;;;;8.07;3.00;;;;;;;;;;6286836;22;20011;-92
2020/12/23 21:06:34;;;;;;;;;;;;;;;;;;;;;
2020/12/23 21:13:28;;;;;;;14.75;4.18;;;;;;;;;;6303121;22;20007;-93
2020/12/23 21:16:27;;;;;;;12.68;3.95;;;;;;;;;;6301071;22;20058;-92
2020/12/23 21:23:04;;;;;;;18.92;5.55;;;;;;;;;;6304370;22;20011;-93
2020/12/23 21:29:18;;;;;;;14.82;4.63;;;;;;;;;;6304748;22;20011;-92
2020/12/23 21:35:56;;;;;;;26.05;4.55;;;;;;;;;;6329712;22;20067;-92
2020/12/23 21:39:44;;;;;;;16.88;4.03;;;;;;;;;;6239346;22;20129;31
2020/12/23 21:46:42;;;;;;;11.68;2.80;;;;;;;;;;6278139;22;20071;-93
2020/12/23 22:09:25;;;;;;;8.57;3.03;;;;;;;;;;6221054;23;20065;-93
2020/12/23 22:12:55;;;;;;;8.20;3.95;;;9.30;99.90;;;;;;6161652;23;20057;-91
2020/12/23 22:32:22;;;;;;;14.38;3.45;;;;;;;;;;6272755;22;20067;-90
2020/12/23 22:36:19;;;;;;;13.80;3.97;;;9.20;99.90;;;;;;6270273;22;20059;-91
2020/12/23 22:39:14;;;;;;;14.77;4.40;;;;;;;;;;6212017;22;20068;-93
2020/12/23 22:42:37;;;;;;;10.10;4.30;;;;;;;;;;6237501;22;20052;-90
2020/12/23 22:45:29;;;;;;;15.02;6.60;;;;;;;;;;6244321;22;20056;-91
2020/12/23 22:48:22;;;;;;;7.60;2.80;;;;;;;;;;6221118;22;20052;-90
2020/12/23 22:51:22;;;;;;;6.40;2.95;;;;;;;;;;6221945;22;20008;-88
2020/12/23 22:55:11;;;;;;;11.02;3.95;;;;;;;;;;6283046;22;20084;-90
2020/12/23 22:58:25;;;;;;;11.23;4.80;;;;;;;;;;6271919;22;20055;-90
2020/12/23 23:01:41;;;;;;;11.93;4.47;;;;;;;;;;6271865;22;20063;-90
2020/12/23 23:04:18;;;;;;;9.60;4.15;;;;;;;;;;6270591;22;20063;-87
2020/12/23 23:07:17;;;;;;;16.58;5.93;;;;;;;;;;6267517;22;20056;-88
2020/12/23 23:09:58;;;;;;;18.42;8.20;;;;;;;;;;6219483;23;20004;-89
2020/12/23 23:12:40;;;;;;;9.73;4.88;;;;;;;;;;6222487;22;20004;-90
2020/12/23 23:15:23;;;;;;;14.52;5.00;;;;;;;;;;6248494;23;20024;-89
2020/12/23 23:18:42;;;;;;;15.48;6.53;;;;;;;;;;6251985;23;20067;-91
2020/12/23 23:21:39;;;;;;;12.60;5.85;;;;;;;;;;6249299;23;20067;-91
2020/12/23 23:24:42;;;;;;;10.27;3.58;;;;;;;;;;6229918;22;20051;-92
2020/12/23 23:27:58;;;;;;;10.43;4.70;;;9.00;99.90;;;;;;6204424;22;20051;-91
2020/12/23 23:30:59;;;;;;;3.15;2.60;;;;;;;;;;6236835;23;20012;-91
2020/12/23 23:37:20;;;;;;;3.40;2.17;;;;;;;;;;6330903;22;20015;-90
2020/12/23 23:40:18;;;;;;;3.38;1.73;;;;;;;;;;6307608;22;20007;-90
2020/12/23 23:43:17;;;;;;;2.47;2.22;;;;;;;;;;6312044;22;20063;-90
2020/12/23 23:46:06;;;;;;;4.50;2.13;;;;;;;;;;6261632;22;20071;-92
2020/12/23 23:48:59;;;;;;;6.38;2.55;;;;;;;;;;6331820;22;20078;-91
2020/12/23 23:51:59;;;;;;;3.25;2.58;;;9.00;99.90;;;;;;6261415;22;20017;-91
2020/12/23 23:54:27;;;;;;;4.97;2.63;;;;;;;;;;6259943;22;20056;-92
2020/12/23 23:57:15;;;;;;;2.15;1.73;;;;;;;;;;6264399;22;20091;-92
